Flight Track Log - Related Links

Times and Time Zones

All times are in EDT time to prevent confusion due to time zone crossing. See the UAL3773 flight status page for this flight to view local times or setup timezone preferences in your user account.

Time Position Orientation Groundspeed Altitude Reporting Facility
EDT Latitude Longitude Course Direction KTS MPH feet Rate Location/Type
Tue 10:20:56 AM 35.1928 -80.9356 72° East 158 182 1,700  Level Atlanta Center
Tue 10:21:33 AM 35.1617 -80.9342 178° South 177 204 2,700 1,959 Climbing Atlanta Center
Tue 10:22:34 AM 35.1058 -80.8806 142° Southeast 284 327 4,900 2,196 Climbing Atlanta Center
Tue 10:24:00 AM 35.2248 -80.5490 30° Northeast  Level FlightAware Approximate
Tue 10:24:06 AM 35.1042 -80.7358 91° East 315 362 8,300  Level Atlanta Center
Tue 10:25:00 AM 35.3167 -80.4729 90° East  Level FlightAware Approximate
Tue 10:25:06 AM 35.1519 -80.6525 55° Northeast 302 348 10,700  Level Atlanta Center
Tue 10:26:00 AM 35.3620 -80.3581 72° East  Level FlightAware Approximate
Tue 10:27:31 AM 35.2847 -80.4164 55° Northeast 364 419 14,000  Level Washington Center
Tue 10:28:31 AM 35.3431 -80.3103 56° Northeast 371 427 16,400 2,000 Climbing Washington Center
Tue 10:29:31 AM 35.4036 -80.2044 55° Northeast 377 434 18,000 1,800 Climbing Washington Center
Tue 10:30:31 AM 35.4478 -80.0819 66° East 382 440 20,000 1,750 Climbing Washington Center
Tue 10:31:31 AM 35.4819 -79.9511 72° East 388 447 21,500 1,550 Climbing Washington Center
Tue 10:32:31 AM 35.5183 -79.8103 72° East 409 471 23,100 1,500 Climbing Washington Center
Tue 10:33:31 AM 35.5544 -79.6692 73° East 422 486 24,500 1,550 Climbing Washington Center
Tue 10:34:31 AM 35.5975 -79.5081 72° East 434 499 26,200 1,250 Climbing Washington Center
Tue 10:35:31 AM 35.6350 -79.3819 70° East 439 505 27,000 400 Climbing Washington Center
Tue 10:36:31 AM 35.6892 -79.2517 63° Northeast 433 498 27,000  Level Washington Center
Tue 10:37:31 AM 35.7753 -79.1583 41° Northeast 416 479 27,000  Level Washington Center
Tue 10:38:31 AM 35.8736 -79.0858 31° Northeast 401 461 27,000  Level Washington Center
Tue 10:39:31 AM 35.9781 -79.0083 31° Northeast 401 461 27,000  Level Washington Center
Tue 10:40:31 AM 36.0758 -78.9381 30° Northeast 401 461 27,000  Level Washington Center
Tue 10:41:31 AM 36.1783 -78.8600 32° Northeast 408 470 27,000  Level Washington Center
Tue 10:42:31 AM 36.2825 -78.7844 30° Northeast 419 482 27,000  Level Washington Center
Tue 10:43:31 AM 36.3892 -78.7011 32° Northeast 437 503 27,000  Level Washington Center
Tue 10:44:31 AM 36.4933 -78.6253 30° Northeast 437 503 27,000  Level Washington Center
Tue 10:45:31 AM 36.5975 -78.5464 31° Northeast 437 503 27,000  Level Washington Center
Tue 10:46:31 AM 36.6806 -78.4769 34° Northeast 437 503 27,000  Level Washington Center
Tue 10:47:31 AM 36.7908 -78.3956 31° Northeast 432 497 27,000  Level Washington Center
Tue 10:48:31 AM 36.8928 -78.3161 32° Northeast 432 497 27,000  Level Washington Center
Tue 10:49:31 AM 36.9989 -78.2367 31° Northeast 438 504 27,000  Level Washington Center
Tue 10:50:31 AM 37.1050 -78.1569 31° Northeast 433 498 27,000  Level Washington Center
Tue 10:51:31 AM 37.2067 -78.0794 31° Northeast 433 498 27,000  Level Washington Center
Tue 10:52:31 AM 37.3086 -77.9994 32° Northeast 433 498 27,000 -1,200 Level Washington Center
Tue 10:53:31 AM 37.4122 -77.9189 32° Northeast 433 498 24,600 -6,500 Descending Washington Center
Tue 10:54:31 AM 37.5119 -77.8433 31° Northeast 433 498 14,000 -2,100 Descending Washington Center
Tue 10:55:31 AM 37.6089 -77.7833 26° Northeast 409 471 20,400 2,300 Climbing Washington Center
Tue 10:56:31 AM 37.7058 -77.7258 25° Northeast 392 451 18,600 -1,700 Descending Washington Center
Tue 10:57:31 AM 37.8008 -77.6706 25° Northeast 381 438 17,000 -1,700 Descending Washington Center
Tue 10:58:31 AM 37.8933 -77.6153 25° Northeast 370 426 15,200 -1,800 Descending Washington Center
Tue 10:59:31 AM 37.9839 -77.5625 25° Northeast 364 419 13,400 -2,000 Descending Washington Center
Tue 11:00:31 AM 38.0744 -77.5067 26° Northeast 357 411 11,200 -1,700 Descending Washington Center
Tue 11:01:31 AM 38.1503 -77.4611 25° Northeast 331 381 10,000 -600 Descending Washington Center
Tue 11:02:31 AM 38.2325 -77.4156 24° Northeast 302 348 10,000 -650 Level Washington Center
Tue 11:03:31 AM 38.3008 -77.4333 348° North 274 315 8,700 -1,400 Descending Washington Center
Tue 11:04:31 AM 38.3778 -77.4456 353° North 274 315 7,200 -1,200 Descending Washington Center
Tue 11:05:31 AM 38.4467 -77.4447 North 261 300 6,300 -1,100 Descending Washington Center
Tue 11:06:31 AM 38.5114 -77.4436 North 238 274 5,000 -1,100 Descending Washington Center
Tue 11:07:31 AM 38.5739 -77.4400 North 224 258 4,100 -891 Descending Washington Center
Tue 11:08:39 AM 38.6500 -77.4333 North 208 239 3,100 -488 Descending Potomac TRACON
Tue 11:09:34 AM 38.7000 -77.4333 360° North 183 211 3,100  Level Potomac TRACON
Tue 11:10:34 AM 38.7500 -77.4333 360° North 184 212 3,100 -150 Level Potomac TRACON
Tue 11:11:34 AM 38.8000 -77.4333 360° North 181 208 2,800 -650 Descending Potomac TRACON
Tue 11:12:34 AM 38.8500 -77.4333 360° North 182 209 1,800 -843 Descending Potomac TRACON
Tue 11:13:35 AM 38.9000 -77.4333 360° North 139 160 1,100 -689 Descending Potomac TRACON

Login

Don't have an account? Register now (free) for customized features, flight alerts, and more!